sensor_id;sensor_type;location;lat;lon;timestamp;P1;durP1;ratioP1;P2;durP2;ratioP2
63959;SDS011;50136;51.374;0.096;2022-08-03T00:05:23;14.10;;;5.05;;
63959;SDS011;50136;51.374;0.096;2022-08-03T00:15:26;18.88;;;5.35;;
63959;SDS011;50136;51.374;0.096;2022-08-03T00:25:28;15.30;;;4.45;;
63959;SDS011;50136;51.374;0.096;2022-08-03T00:35:32;14.02;;;4.72;;
63959;SDS011;50136;51.374;0.096;2022-08-03T00:45:51;16.77;;;4.53;;
63959;SDS011;50136;51.374;0.096;2022-08-03T00:55:54;13.32;;;4.68;;
63959;SDS011;50136;51.374;0.096;2022-08-03T01:05:59;10.05;;;3.65;;
63959;SDS011;50136;51.374;0.096;2022-08-03T01:16:08;16.13;;;5.25;;
63959;SDS011;50136;51.374;0.096;2022-08-03T01:26:24;27.02;;;10.10;;
63959;SDS011;50136;51.374;0.096;2022-08-03T01:36:50;19.90;;;7.68;;
63959;SDS011;50136;51.374;0.096;2022-08-03T01:46:55;21.40;;;8.88;;
63959;SDS011;50136;51.374;0.096;2022-08-03T01:57:01;17.42;;;9.00;;
63959;SDS011;50136;51.374;0.096;2022-08-03T02:07:03;21.92;;;8.38;;
63959;SDS011;50136;51.374;0.096;2022-08-03T02:17:09;16.25;;;7.18;;
63959;SDS011;50136;51.374;0.096;2022-08-03T02:27:16;10.13;;;5.88;;
63959;SDS011;50136;51.374;0.096;2022-08-03T02:37:22;9.55;;;4.72;;
63959;SDS011;50136;51.374;0.096;2022-08-03T02:47:28;15.20;;;4.67;;
63959;SDS011;50136;51.374;0.096;2022-08-03T02:57:53;13.48;;;3.92;;
63959;SDS011;50136;51.374;0.096;2022-08-03T03:08:01;10.65;;;3.60;;
63959;SDS011;50136;51.374;0.096;2022-08-03T03:18:19;15.25;;;4.18;;
63959;SDS011;50136;51.374;0.096;2022-08-03T03:28:23;15.23;;;3.97;;
63959;SDS011;50136;51.374;0.096;2022-08-03T03:38:27;18.05;;;4.13;;
63959;SDS011;50136;51.374;0.096;2022-08-03T03:48:29;14.02;;;5.45;;
63959;SDS011;50136;51.374;0.096;2022-08-03T03:58:34;12.55;;;4.30;;
63959;SDS011;50136;51.374;0.096;2022-08-03T04:08:36;11.40;;;4.63;;
63959;SDS011;50136;51.374;0.096;2022-08-03T04:18:40;12.27;;;5.97;;
63959;SDS011;50136;51.374;0.096;2022-08-03T04:28:44;12.13;;;6.20;;
63959;SDS011;50136;51.374;0.096;2022-08-03T04:38:54;20.13;;;7.68;;
63959;SDS011;50136;51.374;0.096;2022-08-03T04:49:00;12.75;;;6.10;;
63959;SDS011;50136;51.374;0.096;2022-08-03T04:59:04;14.90;;;8.38;;
63959;SDS011;50136;51.374;0.096;2022-08-03T05:09:06;16.10;;;7.50;;
63959;SDS011;50136;51.374;0.096;2022-08-03T05:19:10;16.23;;;6.63;;
63959;SDS011;50136;51.374;0.096;2022-08-03T05:29:12;17.70;;;6.95;;
63959;SDS011;50136;51.374;0.096;2022-08-03T05:39:15;18.77;;;6.15;;
63959;SDS011;50136;51.374;0.096;2022-08-03T05:49:17;18.27;;;5.60;;
63959;SDS011;50136;51.374;0.096;2022-08-03T05:59:21;15.93;;;7.97;;
63959;SDS011;50136;51.374;0.096;2022-08-03T06:20:02;14.93;;;6.32;;
63959;SDS011;50136;51.374;0.096;2022-08-03T06:30:05;12.98;;;5.65;;
63959;SDS011;50136;51.374;0.096;2022-08-03T06:40:10;18.98;;;4.13;;
63959;SDS011;50136;51.374;0.096;2022-08-03T06:50:14;9.27;;;4.78;;
63959;SDS011;50136;51.374;0.096;2022-08-03T07:00:24;7.38;;;3.10;;
63959;SDS011;50136;51.374;0.096;2022-08-03T07:10:26;11.15;;;3.00;;
63959;SDS011;50136;51.374;0.096;2022-08-03T07:20:30;6.15;;;3.13;;
63959;SDS011;50136;51.374;0.096;2022-08-03T07:30:32;27.52;;;3.20;;
63959;SDS011;50136;51.374;0.096;2022-08-03T07:40:36;5.43;;;2.45;;
63959;SDS011;50136;51.374;0.096;2022-08-03T07:50:43;5.00;;;2.47;;
63959;SDS011;50136;51.374;0.096;2022-08-03T08:00:47;9.82;;;2.13;;
63959;SDS011;50136;51.374;0.096;2022-08-03T08:10:49;6.45;;;1.48;;
63959;SDS011;50136;51.374;0.096;2022-08-03T08:21:00;4.72;;;1.30;;
63959;SDS011;50136;51.374;0.096;2022-08-03T08:31:03;2.65;;;1.10;;
63959;SDS011;50136;51.374;0.096;2022-08-03T08:41:23;82.00;;;7.38;;
63959;SDS011;50136;51.374;0.096;2022-08-03T08:51:33;26.02;;;2.10;;
63959;SDS011;50136;51.374;0.096;2022-08-03T09:01:57;6.43;;;1.30;;
63959;SDS011;50136;51.374;0.096;2022-08-03T09:11:59;25.73;;;2.85;;
63959;SDS011;50136;51.374;0.096;2022-08-03T09:22:22;3.22;;;1.30;;
63959;SDS011;50136;51.374;0.096;2022-08-03T09:32:24;7.05;;;1.30;;
63959;SDS011;50136;51.374;0.096;2022-08-03T09:42:27;4.03;;;1.50;;
63959;SDS011;50136;51.374;0.096;2022-08-03T09:52:30;8.98;;;1.42;;
63959;SDS011;50136;51.374;0.096;2022-08-03T10:03:02;23.80;;;2.45;;
63959;SDS011;50136;51.374;0.096;2022-08-03T10:13:04;4.55;;;1.35;;
63959;SDS011;50136;51.374;0.096;2022-08-03T10:23:08;3.65;;;1.30;;
63959;SDS011;50136;51.374;0.096;2022-08-03T10:33:12;3.43;;;1.20;;
63959;SDS011;50136;51.374;0.096;2022-08-03T10:43:41;31.15;;;2.78;;
63959;SDS011;50136;51.374;0.096;2022-08-03T10:53:47;7.88;;;1.83;;
63959;SDS011;50136;51.374;0.096;2022-08-03T11:04:15;27.48;;;4.07;;
63959;SDS011;50136;51.374;0.096;2022-08-03T11:14:19;15.63;;;2.00;;
63959;SDS011;50136;51.374;0.096;2022-08-03T11:35:08;10.13;;;1.90;;
63959;SDS011;50136;51.374;0.096;2022-08-03T11:45:13;8.25;;;1.65;;
63959;SDS011;50136;51.374;0.096;2022-08-03T11:55:16;7.47;;;1.95;;
63959;SDS011;50136;51.374;0.096;2022-08-03T12:05:24;11.63;;;2.10;;
63959;SDS011;50136;51.374;0.096;2022-08-03T12:15:34;7.32;;;1.90;;
63959;SDS011;50136;51.374;0.096;2022-08-03T12:25:38;6.80;;;1.60;;
63959;SDS011;50136;51.374;0.096;2022-08-03T12:35:41;4.70;;;1.33;;
63959;SDS011;50136;51.374;0.096;2022-08-03T12:56:19;7.20;;;1.80;;
63959;SDS011;50136;51.374;0.096;2022-08-03T13:06:23;6.75;;;2.00;;
63959;SDS011;50136;51.374;0.096;2022-08-03T13:16:26;39.17;;;5.25;;
63959;SDS011;50136;51.374;0.096;2022-08-03T13:26:29;8.07;;;1.85;;
63959;SDS011;50136;51.374;0.096;2022-08-03T13:36:31;6.25;;;1.60;;
63959;SDS011;50136;51.374;0.096;2022-08-03T13:46:54;10.13;;;2.35;;
63959;SDS011;50136;51.374;0.096;2022-08-03T13:56:56;13.20;;;2.30;;
63959;SDS011;50136;51.374;0.096;2022-08-03T14:07:20;10.60;;;2.72;;
63959;SDS011;50136;51.374;0.096;2022-08-03T14:17:22;10.65;;;3.88;;
63959;SDS011;50136;51.374;0.096;2022-08-03T14:27:25;6.53;;;1.95;;
63959;SDS011;50136;51.374;0.096;2022-08-03T14:37:27;18.00;;;3.47;;
63959;SDS011;50136;51.374;0.096;2022-08-03T14:47:30;9.43;;;3.03;;
63959;SDS011;50136;51.374;0.096;2022-08-03T14:57:53;4.97;;;1.83;;
63959;SDS011;50136;51.374;0.096;2022-08-03T15:07:56;6.95;;;1.67;;
63959;SDS011;50136;51.374;0.096;2022-08-03T15:17:58;4.13;;;1.55;;
63959;SDS011;50136;51.374;0.096;2022-08-03T15:28:02;8.43;;;2.13;;
63959;SDS011;50136;51.374;0.096;2022-08-03T15:38:05;9.48;;;1.98;;
63959;SDS011;50136;51.374;0.096;2022-08-03T15:48:11;3.75;;;1.55;;
63959;SDS011;50136;51.374;0.096;2022-08-03T15:58:13;6.82;;;1.60;;
63959;SDS011;50136;51.374;0.096;2022-08-03T16:08:36;5.03;;;2.35;;
63959;SDS011;50136;51.374;0.096;2022-08-03T16:18:38;4.20;;;1.25;;
63959;SDS011;50136;51.374;0.096;2022-08-03T16:28:42;2.83;;;1.48;;
63959;SDS011;50136;51.374;0.096;2022-08-03T16:38:44;3.03;;;1.02;;
63959;SDS011;50136;51.374;0.096;2022-08-03T16:48:47;5.13;;;1.10;;
63959;SDS011;50136;51.374;0.096;2022-08-03T16:58:49;4.30;;;1.30;;
63959;SDS011;50136;51.374;0.096;2022-08-03T17:08:54;1.85;;;1.02;;
63959;SDS011;50136;51.374;0.096;2022-08-03T17:30:12;2.15;;;0.88;;
63959;SDS011;50136;51.374;0.096;2022-08-03T17:40:14;1.88;;;0.90;;
63959;SDS011;50136;51.374;0.096;2022-08-03T17:50:19;3.90;;;1.35;;
63959;SDS011;50136;51.374;0.096;2022-08-03T18:00:42;2.95;;;0.95;;
63959;SDS011;50136;51.374;0.096;2022-08-03T18:10:47;1.50;;;0.90;;
63959;SDS011;50136;51.374;0.096;2022-08-03T18:20:51;3.85;;;0.90;;
63959;SDS011;50136;51.374;0.096;2022-08-03T18:30:55;4.43;;;1.23;;
63959;SDS011;50136;51.374;0.096;2022-08-03T18:40:57;2.47;;;1.10;;
63959;SDS011;50136;51.374;0.096;2022-08-03T18:51:03;5.10;;;0.88;;
63959;SDS011;50136;51.374;0.096;2022-08-03T19:01:13;4.95;;;1.10;;
63959;SDS011;50136;51.374;0.096;2022-08-03T19:11:44;3.50;;;1.70;;
63959;SDS011;50136;51.374;0.096;2022-08-03T19:22:06;4.40;;;1.70;;
63959;SDS011;50136;51.374;0.096;2022-08-03T19:32:14;2.90;;;1.27;;
63959;SDS011;50136;51.374;0.096;2022-08-03T19:42:19;3.20;;;1.70;;
63959;SDS011;50136;51.374;0.096;2022-08-03T19:52:30;2.05;;;1.10;;
63959;SDS011;50136;51.374;0.096;2022-08-03T20:02:37;2.88;;;1.80;;
63959;SDS011;50136;51.374;0.096;2022-08-03T20:12:43;3.88;;;1.50;;
63959;SDS011;50136;51.374;0.096;2022-08-03T20:22:46;4.38;;;1.38;;
63959;SDS011;50136;51.374;0.096;2022-08-03T20:32:50;4.55;;;1.77;;
63959;SDS011;50136;51.374;0.096;2022-08-03T20:54:14;4.82;;;2.40;;
63959;SDS011;50136;51.374;0.096;2022-08-03T21:04:29;3.20;;;2.20;;
63959;SDS011;50136;51.374;0.096;2022-08-03T21:14:35;6.75;;;2.30;;
63959;SDS011;50136;51.374;0.096;2022-08-03T21:24:43;8.20;;;1.80;;
63959;SDS011;50136;51.374;0.096;2022-08-03T21:34:47;3.45;;;1.58;;
63959;SDS011;50136;51.374;0.096;2022-08-03T21:44:51;4.07;;;1.90;;
63959;SDS011;50136;51.374;0.096;2022-08-03T21:54:55;8.60;;;2.65;;
63959;SDS011;50136;51.374;0.096;2022-08-03T22:05:01;2.63;;;1.42;;
63959;SDS011;50136;51.374;0.096;2022-08-03T22:15:08;4.78;;;1.90;;
63959;SDS011;50136;51.374;0.096;2022-08-03T22:25:14;2.75;;;1.65;;
63959;SDS011;50136;51.374;0.096;2022-08-03T22:35:17;5.97;;;1.83;;
63959;SDS011;50136;51.374;0.096;2022-08-03T22:45:21;5.88;;;1.80;;
63959;SDS011;50136;51.374;0.096;2022-08-03T22:55:45;8.68;;;2.28;;
63959;SDS011;50136;51.374;0.096;2022-08-03T23:05:48;6.75;;;2.17;;
63959;SDS011;50136;51.374;0.096;2022-08-03T23:16:04;7.15;;;2.88;;
63959;SDS011;50136;51.374;0.096;2022-08-03T23:26:07;8.95;;;2.63;;
63959;SDS011;50136;51.374;0.096;2022-08-03T23:36:14;5.63;;;3.03;;
63959;SDS011;50136;51.374;0.096;2022-08-03T23:46:32;6.18;;;3.00;;
63959;SDS011;50136;51.374;0.096;2022-08-03T23:56:38;6.90;;;4.30;;
